Countyline, North Carolina
Current Conditions -  °F | °C
As of 12:35 AM on Wednesday 22 Oct 2014 (Local Time) from KSVH Reporting Station
Clear Clear  
Wind Chill: 47°   Ceiling: Unl
Heat Index: 49°   Visibility: 10mi
Dew Point: 37°   Wind: 6mph
Humidity: 63%   Direction: 310°NW
Pressure: 30"   Gusts: NA
Location:  35.9632°N, 80.7532°W
Report Text: KSVH 220435Z AUTO 31005KT 10SM CLR 10/03 A3000 RMK AO2 T00970030
Loading
Personal Weather Stations






























Interactive Weather Map
Tropical Storm Tracking
New forecast layout! Learn more

10-Day Weather Forecast

Advertisements
Track Severe Weather on mobile